createdAt,value
2022-09-02T00:01:22.443Z,19.60
2022-09-02T00:03:49.419Z,19.60
2022-09-02T00:06:16.490Z,19.60
2022-09-02T00:08:43.662Z,19.50
2022-09-02T00:11:19.507Z,19.50
2022-09-02T00:13:47.147Z,19.50
2022-09-02T00:16:14.346Z,19.40
2022-09-02T00:18:44.893Z,19.40
2022-09-02T00:21:14.296Z,19.40
2022-09-02T00:23:41.660Z,19.40
2022-09-02T00:26:08.617Z,19.30
2022-09-02T00:28:35.486Z,19.30
2022-09-02T00:31:02.466Z,19.30
2022-09-02T00:33:31.630Z,19.30
2022-09-02T00:36:02.297Z,19.20
2022-09-02T00:38:29.585Z,19.10
2022-09-02T00:40:56.802Z,19.10
2022-09-02T00:43:42.598Z,19.10
2022-09-02T00:46:09.773Z,19.10
2022-09-02T00:48:38.594Z,19.00
2022-09-02T00:51:06.944Z,18.90
2022-09-02T00:53:33.929Z,18.80
2022-09-02T00:56:00.799Z,18.70
2022-09-02T00:58:29.934Z,18.70
2022-09-02T01:00:57.806Z,18.70
2022-09-02T01:03:27.138Z,18.70
2022-09-02T01:05:54.762Z,18.70
2022-09-02T01:08:25.260Z,18.70
2022-09-02T01:10:56.071Z,18.70
2022-09-02T01:13:26.231Z,18.70
2022-09-02T01:15:56.752Z,18.70
2022-09-02T01:18:28.963Z,18.70
2022-09-02T01:20:57.207Z,18.60
2022-09-02T01:23:24.057Z,18.60
2022-09-02T01:25:52.115Z,18.60
2022-09-02T01:28:19.268Z,18.60
2022-09-02T01:30:52.003Z,18.60
2022-09-02T01:33:19.511Z,18.50
2022-09-02T01:35:49.287Z,18.50
2022-09-02T01:38:16.166Z,18.50
2022-09-02T01:40:43.379Z,18.40
2022-09-02T01:43:15.613Z,18.40
2022-09-02T01:45:43.294Z,18.40
2022-09-02T01:48:10.480Z,18.30
2022-09-02T01:50:41.459Z,18.30
2022-09-02T01:53:10.658Z,18.30
2022-09-02T01:55:37.535Z,18.30
2022-09-02T01:58:04.453Z,18.30
2022-09-02T02:00:31.372Z,18.20
2022-09-02T02:02:58.214Z,18.20
2022-09-02T02:05:25.178Z,18.20
2022-09-02T02:07:52.052Z,18.10
2022-09-02T02:10:19.896Z,18.10
2022-09-02T02:12:47.581Z,18.10
2022-09-02T02:15:18.306Z,18.10
2022-09-02T02:17:45.228Z,18.10
2022-09-02T02:20:16.031Z,18.10
2022-09-02T02:22:43.329Z,18.10
2022-09-02T02:25:10.376Z,18.10
2022-09-02T02:27:37.247Z,18.00
2022-09-02T02:30:06.122Z,18.00
2022-09-02T02:32:33.023Z,18.00
2022-09-02T02:34:59.831Z,18.00
2022-09-02T02:37:26.691Z,18.00
2022-09-02T02:39:53.971Z,18.00
2022-09-02T02:42:21.143Z,18.00
2022-09-02T02:44:48.019Z,18.00
2022-09-02T02:47:16.352Z,17.90
2022-09-02T02:49:43.866Z,18.00
2022-09-02T02:52:11.177Z,17.90
2022-09-02T02:54:38.288Z,17.90
2022-09-02T02:57:05.838Z,17.90
2022-09-02T02:59:32.809Z,17.90
2022-09-02T03:01:59.747Z,17.90
2022-09-02T03:04:26.650Z,17.90
2022-09-02T03:06:53.501Z,17.90
2022-09-02T03:09:20.492Z,17.80
2022-09-02T03:11:48.089Z,17.80
2022-09-02T03:14:15.077Z,17.70
2022-09-02T03:16:42.054Z,17.70
2022-09-02T03:19:09.370Z,17.70
2022-09-02T03:21:39.216Z,17.70
2022-09-02T03:24:07.102Z,17.60
2022-09-02T03:26:33.914Z,17.60
2022-09-02T03:29:00.719Z,17.60
2022-09-02T03:31:28.489Z,17.50
2022-09-02T03:33:55.572Z,17.50
2022-09-02T03:36:27.347Z,17.50
2022-09-02T03:38:54.745Z,17.50
2022-09-02T03:41:21.641Z,17.50
2022-09-02T03:43:48.694Z,17.40
2022-09-02T03:46:15.746Z,17.50
2022-09-02T03:48:42.621Z,17.40
2022-09-02T03:51:09.442Z,17.40
2022-09-02T03:53:36.689Z,17.40
2022-09-02T03:56:11.805Z,17.40
2022-09-02T03:58:40.065Z,17.40
2022-09-02T04:01:08.415Z,17.40
2022-09-02T04:03:35.319Z,17.40
2022-09-02T04:06:02.158Z,17.40
2022-09-02T04:08:29.105Z,17.40
2022-09-02T04:10:56.476Z,17.30
2022-09-02T04:13:23.656Z,17.30
2022-09-02T04:15:50.682Z,17.20
2022-09-02T04:18:17.689Z,17.30
2022-09-02T04:20:44.615Z,17.30
2022-09-02T04:23:11.573Z,17.20
2022-09-02T04:25:44.361Z,17.20
2022-09-02T04:28:11.322Z,17.20
2022-09-02T04:30:41.825Z,17.20
2022-09-02T04:33:08.882Z,17.20
2022-09-02T04:35:36.055Z,17.20
2022-09-02T04:38:03.105Z,17.20
2022-09-02T04:40:30.089Z,17.20
2022-09-02T04:42:57.053Z,17.20
2022-09-02T04:45:27.771Z,17.10
2022-09-02T04:47:56.569Z,17.10
2022-09-02T04:50:23.373Z,17.10
2022-09-02T04:52:50.189Z,17.10
2022-09-02T04:55:17.196Z,17.00
2022-09-02T04:57:44.077Z,17.00
2022-09-02T05:00:11.374Z,17.00
2022-09-02T05:02:38.342Z,17.10
2022-09-02T05:05:06.819Z,17.10
2022-09-02T05:07:36.506Z,17.10
2022-09-02T05:10:04.124Z,17.10
2022-09-02T05:12:32.475Z,17.10
2022-09-02T05:15:01.218Z,17.10
2022-09-02T05:17:29.995Z,17.10
2022-09-02T05:19:57.025Z,17.10
2022-09-02T05:22:25.455Z,17.00
2022-09-02T05:24:52.421Z,17.00
2022-09-02T05:27:20.407Z,17.00
2022-09-02T05:29:48.194Z,17.10
2022-09-02T05:32:15.069Z,17.10
2022-09-02T05:34:41.913Z,17.10
2022-09-02T05:37:09.519Z,17.20
2022-09-02T05:39:36.350Z,17.20
2022-09-02T05:42:03.187Z,17.20
2022-09-02T05:44:31.420Z,17.30
2022-09-02T05:46:58.266Z,17.30
2022-09-02T05:49:26.908Z,17.30
2022-09-02T05:51:55.810Z,17.30
2022-09-02T05:54:28.779Z,17.40
2022-09-02T05:56:56.929Z,17.50
2022-09-02T05:59:24.331Z,17.50
2022-09-02T06:01:51.482Z,17.60
2022-09-02T06:04:18.547Z,17.70
2022-09-02T06:06:45.475Z,17.70
2022-09-02T06:09:13.623Z,17.70
2022-09-02T06:11:44.673Z,17.80
2022-09-02T06:14:15.434Z,17.90
2022-09-02T06:16:42.373Z,17.90
2022-09-02T06:19:09.281Z,17.90
2022-09-02T06:21:37.136Z,17.90
2022-09-02T06:24:07.890Z,17.90
2022-09-02T06:26:34.866Z,17.80
2022-09-02T06:29:01.778Z,17.80
2022-09-02T06:31:28.782Z,17.70
2022-09-02T06:34:01.662Z,17.80
2022-09-02T06:36:30.789Z,17.80
2022-09-02T06:38:58.459Z,17.80
2022-09-02T06:41:28.349Z,17.90
2022-09-02T06:44:00.089Z,18.00
2022-09-02T06:46:29.405Z,18.10
2022-09-02T06:48:56.383Z,18.10
2022-09-02T06:51:25.192Z,18.30
2022-09-02T06:53:52.198Z,18.40
2022-09-02T06:56:19.251Z,18.60
2022-09-02T06:58:46.170Z,18.60
2022-09-02T07:01:20.340Z,18.70
2022-09-02T07:04:06.121Z,18.90
2022-09-02T07:06:37.010Z,18.90
2022-09-02T07:09:06.523Z,19.00
2022-09-02T07:11:33.632Z,19.30
2022-09-02T07:14:01.874Z,19.40
2022-09-02T07:16:30.198Z,19.40
2022-09-02T07:18:57.682Z,19.50
2022-09-02T07:21:24.540Z,19.60
2022-09-02T07:23:51.405Z,19.60
2022-09-02T07:26:18.423Z,19.60
2022-09-02T07:28:46.206Z,19.70
2022-09-02T07:31:14.673Z,19.90
2022-09-02T07:33:42.529Z,20.00
2022-09-02T07:36:12.592Z,20.10
2022-09-02T07:38:40.435Z,20.20
2022-09-02T07:41:07.874Z,20.40
2022-09-02T07:43:34.874Z,20.50
2022-09-02T07:46:02.271Z,20.70
2022-09-02T07:48:29.530Z,20.80
2022-09-02T07:50:56.747Z,20.70
2022-09-02T07:53:23.955Z,20.50
2022-09-02T07:55:50.997Z,20.60
2022-09-02T07:58:18.327Z,20.70
2022-09-02T08:00:47.095Z,20.80
2022-09-02T08:03:14.170Z,21.10
2022-09-02T08:05:41.774Z,21.30
2022-09-02T08:08:08.803Z,21.50
2022-09-02T08:10:35.918Z,21.60
2022-09-02T08:13:02.886Z,21.80
2022-09-02T08:15:30.251Z,22.00
2022-09-02T08:17:57.517Z,22.00
2022-09-02T08:20:24.486Z,22.30
2022-09-02T08:23:00.864Z,22.40
2022-09-02T08:25:37.966Z,22.50
2022-09-02T08:28:05.070Z,22.60
2022-09-02T08:30:32.102Z,22.60
2022-09-02T08:32:58.970Z,22.60
2022-09-02T08:35:25.831Z,22.70
2022-09-02T08:37:52.709Z,22.80
2022-09-02T08:40:21.019Z,22.80
2022-09-02T08:42:52.887Z,22.90
2022-09-02T08:45:38.604Z,23.00
2022-09-02T08:48:10.787Z,23.20
2022-09-02T08:50:38.502Z,23.50
2022-09-02T08:53:40.844Z,23.70
2022-09-02T08:56:09.302Z,23.80
2022-09-02T08:58:40.686Z,23.90
2022-09-02T09:01:20.017Z,23.90
2022-09-02T09:04:05.019Z,24.00
2022-09-02T09:06:57.629Z,24.30
2022-09-02T09:09:56.546Z,24.30
2022-09-02T09:12:35.584Z,24.20
2022-09-02T09:15:34.755Z,24.40
2022-09-02T09:18:05.118Z,24.50
2022-09-02T09:20:39.289Z,24.50
2022-09-02T09:23:34.296Z,24.70
2022-09-02T09:26:11.095Z,24.80
2022-09-02T09:28:46.007Z,25.00
2022-09-02T09:31:15.697Z,25.00
2022-09-02T09:34:05.431Z,25.10
2022-09-02T09:36:44.886Z,25.30
2022-09-02T09:39:31.167Z,25.40
2022-09-02T09:42:04.466Z,25.40
2022-09-02T09:44:43.345Z,25.50
2022-09-02T09:47:17.913Z,25.50
2022-09-02T09:49:45.711Z,25.70
2022-09-02T09:52:12.571Z,25.70
2022-09-02T09:54:39.419Z,25.70
2022-09-02T09:57:21.939Z,25.60
2022-09-02T09:59:50.028Z,25.70
2022-09-02T10:02:24.985Z,25.80
2022-09-02T10:04:55.855Z,26.00
2022-09-02T10:07:56.252Z,26.00
2022-09-02T10:10:27.218Z,26.00
2022-09-02T10:12:56.126Z,25.90
2022-09-02T10:15:38.803Z,25.90
2022-09-02T10:18:38.664Z,26.00
2022-09-02T10:21:20.391Z,26.00
2022-09-02T10:24:20.834Z,26.20
2022-09-02T10:26:49.367Z,26.40
2022-09-02T10:29:16.785Z,26.50
2022-09-02T10:32:17.583Z,26.60
2022-09-02T10:35:10.590Z,26.50
2022-09-02T10:37:57.398Z,26.40
2022-09-02T10:40:35.343Z,26.40
2022-09-02T10:43:06.741Z,26.60
2022-09-02T10:45:50.959Z,26.90
2022-09-02T10:48:23.863Z,27.00
2022-09-02T10:51:05.635Z,27.10
2022-09-02T10:53:44.695Z,27.10
2022-09-02T10:56:21.717Z,27.20
2022-09-02T10:59:03.142Z,27.20
2022-09-02T11:01:35.092Z,27.20
2022-09-02T11:04:06.337Z,27.40
2022-09-02T11:06:52.053Z,27.60
2022-09-02T11:09:35.232Z,27.70
2022-09-02T11:12:18.498Z,27.80
2022-09-02T11:15:04.444Z,27.80
2022-09-02T11:17:36.149Z,27.60
2022-09-02T11:20:17.548Z,27.80
2022-09-02T11:23:23.099Z,28.00
2022-09-02T11:26:04.434Z,27.90
2022-09-02T11:28:33.558Z,27.90
2022-09-02T11:31:07.570Z,27.90
2022-09-02T11:33:55.602Z,28.20
2022-09-02T11:36:22.796Z,27.90
2022-09-02T11:39:05.734Z,28.10
2022-09-02T11:41:57.125Z,28.00
2022-09-02T11:44:52.237Z,27.60
2022-09-02T11:47:25.998Z,27.30
2022-09-02T11:50:07.844Z,27.30
2022-09-02T11:52:58.132Z,27.50
2022-09-02T11:55:29.307Z,27.80
2022-09-02T11:57:57.738Z,28.00
2022-09-02T12:00:27.266Z,28.10
2022-09-02T12:03:51.887Z,28.00
2022-09-02T12:06:13.821Z,28.00
2022-09-02T12:08:42.999Z,28.10
2022-09-02T12:11:12.175Z,27.90
2022-09-02T12:13:43.569Z,28.00
2022-09-02T12:16:16.282Z,28.10
2022-09-02T12:18:43.837Z,27.70
2022-09-02T12:21:21.813Z,27.30
2022-09-02T12:23:53.970Z,27.10
2022-09-02T12:26:24.570Z,27.40
2022-09-02T12:28:54.187Z,27.50
2022-09-02T12:31:44.013Z,27.90
2022-09-02T12:34:23.062Z,27.60
2022-09-02T12:36:59.525Z,27.60
2022-09-02T12:39:28.419Z,27.40
2022-09-02T12:42:07.357Z,27.40
2022-09-02T12:44:55.057Z,27.60
2022-09-02T12:47:33.905Z,27.50
2022-09-02T12:50:20.326Z,27.50
2022-09-02T12:52:48.499Z,27.30
2022-09-02T12:55:18.545Z,27.40
2022-09-02T12:57:47.413Z,27.80
2022-09-02T13:00:16.102Z,28.10
2022-09-02T13:03:17.164Z,28.30
2022-09-02T13:06:21.425Z,28.60
2022-09-02T13:09:06.067Z,29.20
2022-09-02T13:12:10.179Z,29.50
2022-09-02T13:15:04.190Z,29.70
2022-09-02T13:17:42.073Z,29.90
2022-09-02T13:20:36.969Z,30.10
2022-09-02T13:23:35.277Z,30.40
2022-09-02T13:26:02.282Z,30.50
2022-09-02T13:28:32.183Z,30.20
2022-09-02T13:31:04.589Z,30.10
2022-09-02T13:33:31.475Z,30.00
2022-09-02T13:35:59.469Z,30.00
2022-09-02T13:38:27.806Z,29.90
2022-09-02T13:40:54.783Z,29.80
2022-09-02T13:43:24.130Z,29.60
2022-09-02T13:45:51.481Z,29.60
2022-09-02T13:48:25.962Z,29.20
2022-09-02T13:50:59.917Z,29.20
2022-09-02T13:53:53.865Z,29.40
2022-09-02T13:56:29.158Z,29.70
2022-09-02T13:58:57.143Z,29.20
2022-09-02T14:01:37.300Z,28.70
2022-09-02T14:04:07.217Z,28.60
2022-09-02T14:06:36.779Z,28.70
2022-09-02T14:09:06.602Z,29.00
2022-09-02T14:11:40.389Z,29.40
2022-09-02T14:14:07.278Z,29.70
2022-09-02T14:16:35.440Z,29.70
2022-09-02T14:19:14.586Z,29.90
2022-09-02T14:21:48.767Z,30.20
2022-09-02T14:24:18.636Z,30.20
2022-09-02T14:26:46.703Z,30.30
2022-09-02T14:29:17.883Z,30.30
2022-09-02T14:31:45.312Z,30.10
2022-09-02T14:34:38.087Z,30.30
2022-09-02T14:37:34.090Z,30.40
2022-09-02T14:40:12.216Z,30.40
2022-09-02T14:42:52.722Z,30.10
2022-09-02T14:45:30.467Z,29.60
2022-09-02T14:47:58.700Z,29.40
2022-09-02T14:50:32.752Z,29.60
2022-09-02T14:53:05.959Z,29.90
2022-09-02T14:55:44.914Z,30.10
2022-09-02T14:58:11.871Z,30.00
2022-09-02T15:00:39.299Z,30.20
2022-09-02T15:03:07.045Z,29.80
2022-09-02T15:05:33.981Z,29.60
2022-09-02T15:08:00.955Z,29.60
2022-09-02T15:10:27.967Z,29.50
2022-09-02T15:12:56.034Z,29.30
2022-09-02T15:15:23.268Z,29.20
2022-09-02T15:17:50.195Z,29.00
2022-09-02T15:20:17.665Z,28.80
2022-09-02T15:22:44.628Z,28.70
2022-09-02T15:25:11.572Z,28.60
2022-09-02T15:27:38.688Z,28.50
2022-09-02T15:30:06.646Z,28.30
2022-09-02T15:32:33.530Z,28.30
2022-09-02T15:35:00.365Z,28.10
2022-09-02T15:37:27.957Z,28.00
2022-09-02T15:39:54.979Z,27.90
2022-09-02T15:42:22.182Z,27.90
2022-09-02T15:44:49.031Z,27.80
2022-09-02T15:47:15.898Z,27.80
2022-09-02T15:49:42.891Z,27.70
2022-09-02T15:52:10.198Z,27.70
2022-09-02T15:54:37.018Z,27.70
2022-09-02T15:57:03.965Z,27.70
2022-09-02T15:59:30.899Z,27.80
2022-09-02T16:02:00.958Z,27.70
2022-09-02T16:04:27.835Z,27.60
2022-09-02T16:06:54.707Z,27.40
2022-09-02T16:09:21.817Z,27.50
2022-09-02T16:11:50.518Z,27.50
2022-09-02T16:14:20.892Z,27.50
2022-09-02T16:16:49.380Z,27.40
2022-09-02T16:19:16.576Z,27.30
2022-09-02T16:21:43.446Z,27.30
2022-09-02T16:24:10.445Z,27.30
2022-09-02T16:26:38.454Z,27.20
2022-09-02T16:29:09.430Z,27.10
2022-09-02T16:31:38.376Z,27.00
2022-09-02T16:34:09.481Z,27.00
2022-09-02T16:36:38.227Z,26.90
2022-09-02T16:39:05.391Z,26.90
2022-09-02T16:41:39.518Z,26.50
2022-09-02T16:44:08.047Z,26.30
2022-09-02T16:46:35.727Z,26.10
2022-09-02T16:49:02.774Z,25.90
2022-09-02T16:51:33.526Z,25.70
2022-09-02T16:54:01.686Z,25.50
2022-09-02T16:56:28.689Z,25.30
2022-09-02T16:58:55.514Z,25.20
2022-09-02T17:01:23.098Z,25.20
2022-09-02T17:03:50.728Z,25.10
2022-09-02T17:06:17.737Z,25.10
2022-09-02T17:08:44.557Z,25.00
2022-09-02T17:11:33.726Z,25.00
2022-09-02T17:14:04.262Z,24.90
2022-09-02T17:16:33.200Z,24.90
2022-09-02T17:19:00.309Z,24.80
2022-09-02T17:21:30.992Z,24.70
2022-09-02T17:23:58.062Z,24.70
2022-09-02T17:26:26.549Z,24.60
2022-09-02T17:28:55.678Z,24.60
2022-09-02T17:31:24.776Z,24.40
2022-09-02T17:33:52.199Z,24.40
2022-09-02T17:36:19.191Z,24.40
2022-09-02T17:38:46.312Z,24.30
2022-09-02T17:41:31.999Z,24.30
2022-09-02T17:43:58.831Z,24.30
2022-09-02T17:46:26.567Z,24.30
2022-09-02T17:49:15.181Z,24.20
2022-09-02T17:51:40.422Z,24.20
2022-09-02T17:54:08.046Z,24.20
2022-09-02T17:57:03.375Z,24.10
2022-09-02T18:00:00.531Z,24.10
2022-09-02T18:02:36.520Z,24.10
2022-09-02T18:05:17.032Z,24.00
2022-09-02T18:08:01.238Z,24.00
2022-09-02T18:10:34.127Z,23.90
2022-09-02T18:13:13.694Z,23.90
2022-09-02T18:16:04.969Z,24.00
2022-09-02T18:18:31.843Z,24.00
2022-09-02T18:21:03.947Z,24.00
2022-09-02T18:23:52.734Z,23.90
2022-09-02T18:26:19.538Z,23.80
2022-09-02T18:29:04.896Z,23.80
2022-09-02T18:32:10.011Z,23.80
2022-09-02T18:34:59.206Z,23.80
2022-09-02T18:37:46.151Z,23.80
2022-09-02T18:40:27.622Z,23.80
2022-09-02T18:43:13.581Z,23.90
2022-09-02T18:45:50.038Z,23.90
2022-09-02T18:48:31.851Z,24.00
2022-09-02T18:51:07.010Z,24.00
2022-09-02T18:53:42.929Z,24.00
2022-09-02T18:56:10.522Z,23.90
2022-09-02T18:58:40.069Z,23.90
2022-09-02T19:01:14.408Z,23.90
2022-09-02T19:03:41.411Z,23.90
2022-09-02T19:06:12.318Z,23.90
2022-09-02T19:08:39.566Z,23.90
2022-09-02T19:11:14.366Z,23.90
2022-09-02T19:13:52.993Z,23.90
2022-09-02T19:16:25.306Z,23.90
2022-09-02T19:18:52.570Z,23.90
2022-09-02T19:21:31.713Z,23.90
2022-09-02T19:23:58.619Z,23.90
2022-09-02T19:26:25.467Z,23.80
2022-09-02T19:28:52.378Z,23.70
2022-09-02T19:31:21.997Z,23.60
2022-09-02T19:33:52.733Z,23.50
2022-09-02T19:36:21.252Z,23.50
2022-09-02T19:38:48.131Z,23.40
2022-09-02T19:41:15.028Z,23.40
2022-09-02T19:43:42.549Z,23.40
2022-09-02T19:46:27.759Z,23.30
2022-09-02T19:48:58.102Z,23.20
2022-09-02T19:51:27.244Z,23.20
2022-09-02T19:53:56.543Z,23.20
2022-09-02T19:56:23.467Z,23.20
2022-09-02T19:58:50.327Z,23.00
2022-09-02T20:01:17.183Z,22.90
2022-09-02T20:03:46.557Z,22.90
2022-09-02T20:06:13.392Z,22.70
2022-09-02T20:08:40.261Z,22.80
2022-09-02T20:11:07.090Z,22.80
2022-09-02T20:13:41.426Z,22.80
2022-09-02T20:16:19.955Z,22.80
2022-09-02T20:18:48.373Z,22.80
2022-09-02T20:21:22.202Z,22.80
2022-09-02T20:23:49.023Z,22.80
2022-09-02T20:26:49.195Z,22.80
2022-09-02T20:29:56.804Z,22.80
2022-09-02T20:32:32.038Z,22.80
2022-09-02T20:35:13.781Z,22.70
2022-09-02T20:38:05.275Z,22.70
2022-09-02T20:40:53.431Z,22.60
2022-09-02T20:43:41.194Z,22.60
2022-09-02T20:46:08.947Z,22.60
2022-09-02T20:48:40.917Z,22.50
2022-09-02T20:51:19.155Z,22.50
2022-09-02T20:54:04.348Z,22.40
2022-09-02T20:56:56.049Z,22.40
2022-09-02T20:59:43.830Z,22.40
2022-09-02T21:02:12.357Z,22.30
2022-09-02T21:04:56.890Z,22.30
2022-09-02T21:07:26.011Z,22.30
2022-09-02T21:10:06.742Z,22.20
2022-09-02T21:12:53.879Z,22.20
2022-09-02T21:15:49.586Z,22.30
2022-09-02T21:18:37.833Z,22.30
2022-09-02T21:21:11.145Z,22.30
2022-09-02T21:24:00.984Z,22.30
2022-09-02T21:26:48.291Z,22.40
2022-09-02T21:29:18.567Z,22.40
2022-09-02T21:32:00.546Z,22.40
2022-09-02T21:34:34.060Z,22.40
2022-09-02T21:37:02.694Z,22.40
2022-09-02T21:39:31.335Z,22.40
2022-09-02T21:42:43.903Z,22.40
2022-09-02T21:45:16.557Z,22.30
2022-09-02T21:47:48.525Z,22.30
2022-09-02T21:50:22.331Z,22.10
2022-09-02T21:52:58.615Z,22.00
2022-09-02T21:55:44.628Z,22.00
2022-09-02T21:58:52.082Z,21.90
2022-09-02T22:01:27.940Z,21.90
2022-09-02T22:03:58.906Z,21.90
2022-09-02T22:06:37.472Z,21.90
2022-09-02T22:09:10.917Z,21.90
2022-09-02T22:11:59.115Z,21.90
2022-09-02T22:14:49.274Z,21.90
2022-09-02T22:17:22.751Z,21.90
2022-09-02T22:19:54.197Z,22.00
2022-09-02T22:22:24.489Z,21.90
2022-09-02T22:24:52.050Z,21.90
2022-09-02T22:27:22.686Z,21.90
2022-09-02T22:30:13.087Z,21.90
2022-09-02T22:32:50.302Z,21.90
2022-09-02T22:35:31.568Z,21.90
2022-09-02T22:38:26.624Z,21.90
2022-09-02T22:41:01.941Z,21.90
2022-09-02T22:43:36.044Z,21.90
2022-09-02T22:46:28.764Z,21.90
2022-09-02T22:49:19.152Z,21.90
2022-09-02T22:52:07.897Z,21.80
2022-09-02T22:54:34.742Z,21.90
2022-09-02T22:57:09.042Z,21.90
2022-09-02T22:59:53.899Z,21.90
2022-09-02T23:02:27.986Z,21.90
2022-09-02T23:04:54.824Z,21.90
2022-09-02T23:07:23.634Z,21.90
2022-09-02T23:09:54.827Z,21.80
2022-09-02T23:12:34.218Z,21.80
2022-09-02T23:15:32.963Z,21.70
2022-09-02T23:18:11.824Z,21.60
2022-09-02T23:21:25.982Z,21.60
2022-09-02T23:24:02.003Z,21.50
2022-09-02T23:26:34.430Z,21.60
2022-09-02T23:29:16.508Z,21.60
2022-09-02T23:32:04.922Z,21.60
2022-09-02T23:34:34.735Z,21.50
2022-09-02T23:37:18.143Z,21.40
2022-09-02T23:40:19.634Z,21.40
2022-09-02T23:42:46.999Z,21.30
2022-09-02T23:45:32.961Z,21.20
2022-09-02T23:48:31.534Z,21.10
2022-09-02T23:51:05.452Z,21.10
2022-09-02T23:53:51.069Z,21.00
2022-09-02T23:56:46.511Z,20.90
2022-09-02T23:59:25.048Z,20.80
